Time;durP1;ratioP1;P1;durP2;ratioP2;P2;SDS_P1;SDS_P2;PMS_P1;PMS_P2;Temp;Humidity;BMP_temperature;BMP_pressure;BME280_temperature;BME280_humidity;BME280_pressure;Samples;Min_cycle;Max_cycle;Signal;HPM_P1;HPM_P2
2023/08/15 00:01:11;;;;;;;7.30;4.10;;;;;;;;;;5007028;28;20316;-57
2023/08/15 00:03:36;;;;;;;6.57;3.97;;;;;;;;;;5006645;28;20559;-55
2023/08/15 00:06:02;;;;;;;6.83;3.63;;;;;;;;;;5015828;28;20303;-57
2023/08/15 00:08:27;;;;;;;7.13;3.67;;;;;;;;;;5027014;28;20283;-57
2023/08/15 00:10:52;;;;;;;6.17;3.83;;;;;;;;;;5010297;28;20372;-55
2023/08/15 00:13:17;;;;;;;8.30;4.27;;;;;;;;;;5007111;28;20289;-55
2023/08/15 00:15:43;;;;;;;7.53;4.03;;;;;;;;;;5005788;28;20543;-55
2023/08/15 00:18:08;;;;;;;6.67;4.07;;;;;;;;;;5005908;28;20492;-57
2023/08/15 00:20:33;;;;;;;6.33;3.70;;;;;;;;;;5007742;28;20288;-57
2023/08/15 00:22:58;;;;;;;5.43;3.90;;;;;;;;;;5005087;28;20034;-56
2023/08/15 00:25:24;;;;;;;7.53;3.77;;;;;;;;;;5005458;28;20026;-55
2023/08/15 00:27:49;;;;;;;5.38;3.90;;;;;;;;;;5007248;28;20293;-55
2023/08/15 00:30:14;;;;;;;6.93;4.30;;;;;;;;;;5005272;28;20061;-56
2023/08/15 00:32:39;;;;;;;7.03;3.73;;;;;;;;;;5005563;28;20125;-56
2023/08/15 00:35:05;;;;;;;6.10;3.80;;;;;;;;;;5005793;28;20128;-54
2023/08/15 00:37:33;;;;;;;6.50;3.88;;;;;;;;;;5005681;28;20276;-55
2023/08/15 00:39:58;;;;;;;6.07;4.15;;;;;;;;;;5005072;28;20050;-56
2023/08/15 00:42:23;;;;;;;7.23;3.90;;;;;;;;;;5005028;28;20512;-56
2023/08/15 00:44:49;;;;;;;7.43;4.13;;;;;;;;;;4987625;28;20384;-55
2023/08/15 00:47:14;;;;;;;8.03;3.70;;;;;;;;;;5005527;28;20844;-56
2023/08/15 00:49:42;;;;;;;5.73;3.87;;;;;;;;;;5004525;28;20292;-55
2023/08/15 00:52:08;;;;;;;6.57;4.10;;;;;;;;;;5004951;28;20663;-55
2023/08/15 00:54:33;;;;;;;5.15;4.38;;;;;;;;;;5005386;28;20045;-56
2023/08/15 00:56:58;;;;;;;6.20;4.23;;;;;;;;;;4989121;28;20037;-56
2023/08/15 00:59:23;;;;;;;6.10;4.00;;;;;;;;;;5004542;28;20277;-56
2023/08/15 01:01:49;;;;;;;8.10;4.47;;;;;;;;;;4987225;28;20034;-56
2023/08/15 01:04:14;;;;;;;5.90;4.10;;;;;;;;;;5010575;28;20038;-56
2023/08/15 01:06:40;;;;;;;6.30;4.00;;;;;;;;;;4995358;28;20049;-57
2023/08/15 01:09:05;;;;;;;6.75;4.13;;;;;;;;;;4986829;28;20033;-56
2023/08/15 01:11:32;;;;;;;6.23;4.17;;;;;;;;;;5003403;28;20072;-55
2023/08/15 01:14:02;;;;;;;5.93;3.85;;;;;;;;;;4966474;28;20284;-55
2023/08/15 01:16:33;;;;;;;5.68;3.80;;;;;;;;;;4993151;28;20052;-55
2023/08/15 01:19:01;;;;;;;5.88;4.07;;;;;;;;;;5003652;28;20042;-56
2023/08/15 01:21:28;;;;;;;5.35;3.95;;;;;;;;;;5004447;28;20802;-55
2023/08/15 01:23:53;;;;;;;7.65;4.05;;;;;;;;;;5003655;28;20496;-56
2023/08/15 01:26:18;;;;;;;7.45;4.30;;;;;;;;;;5003299;28;20053;-56
2023/08/15 01:28:43;;;;;;;6.30;4.10;;;;;;;;;;5004751;28;20159;-55
2023/08/15 01:31:12;;;;;;;7.20;4.20;;;;;;;;;;4986327;28;20057;-55
2023/08/15 01:33:39;;;;;;;6.25;4.30;;;;;;;;;;4984938;28;20328;-55
2023/08/15 01:36:15;;;;;;;8.43;4.40;;;;;;;;;;5004358;28;20562;-55
2023/08/15 01:38:44;;;;;;;6.93;3.92;;;;;;;;;;5008610;28;20056;-56
2023/08/15 01:41:12;;;;;;;7.85;4.28;;;;;;;;;;5005699;28;20128;-55
2023/08/15 01:43:37;;;;;;;7.03;4.50;;;;;;;;;;4987064;28;20034;-55
2023/08/15 01:46:03;;;;;;;7.55;4.15;;;;;;;;;;4986617;28;20531;-56
2023/08/15 01:48:28;;;;;;;8.05;4.35;;;;;;;;;;5005913;28;20354;-56
2023/08/15 01:50:53;;;;;;;6.60;3.70;;;;;;;;;;5004621;28;20050;-55
2023/08/15 01:53:19;;;;;;;5.40;4.03;;;;;;;;;;5004878;28;21165;-55
2023/08/15 01:55:44;;;;;;;8.93;4.40;;;;;;;;;;5004424;28;20414;-54
2023/08/15 01:58:10;;;;;;;6.37;4.00;;;;;;;;;;4987198;28;20044;-55
2023/08/15 02:00:35;;;;;;;6.13;4.40;;;;;;;;;;5004484;28;20752;-56
2023/08/15 02:03:00;;;;;;;7.50;4.10;;;;;;;;;;5004451;28;20372;-55
2023/08/15 02:05:25;;;;;;;7.38;3.90;;;;;;;;;;5007410;28;20048;-55
2023/08/15 02:07:51;;;;;;;5.37;4.00;;;;;;;;;;5004716;28;20152;-55
2023/08/15 02:10:16;;;;;;;6.70;4.03;;;;;;;;;;5003602;28;20297;-55
2023/08/15 02:12:41;;;;;;;6.53;4.10;;;;;;;;;;5003737;28;20332;-55
2023/08/15 02:15:07;;;;;;;6.40;4.03;;;;;;;;;;5004211;28;20352;-55
2023/08/15 02:17:32;;;;;;;5.65;4.05;;;;;;;;;;5010296;28;20132;-55
2023/08/15 02:19:57;;;;;;;5.60;3.80;;;;;;;;;;5001894;28;20053;-55
2023/08/15 02:22:23;;;;;;;6.47;4.10;;;;;;;;;;4993115;28;20082;-55
2023/08/15 02:24:48;;;;;;;4.57;3.50;;;;;;;;;;4986522;28;20035;-54
2023/08/15 02:27:13;;;;;;;4.93;3.90;;;;;;;;;;5005687;28;20042;-58
2023/08/15 02:29:38;;;;;;;5.97;3.70;;;;;;;;;;4990443;28;20384;-55
2023/08/15 02:32:03;;;;;;;5.30;3.87;;;;;;;;;;5007904;28;20308;-55
2023/08/15 02:34:29;;;;;;;6.33;4.23;;;;;;;;;;5008171;28;20268;-55
2023/08/15 02:36:54;;;;;;;6.90;3.73;;;;;;;;;;5008358;28;20053;-55
2023/08/15 02:39:19;;;;;;;5.80;3.87;;;;;;;;;;5007416;28;20086;-55
2023/08/15 02:41:45;;;;;;;4.72;3.58;;;;;;;;;;5007300;28;20049;-54
2023/08/15 02:44:10;;;;;;;6.90;3.77;;;;;;;;;;4990254;28;20631;-56
2023/08/15 02:46:35;;;;;;;5.03;4.00;;;;;;;;;;5007845;28;20277;-56
2023/08/15 02:49:01;;;;;;;6.53;3.88;;;;;;;;;;5007684;28;20287;-55
2023/08/15 02:51:26;;;;;;;6.60;4.28;;;;;;;;;;5007018;28;20070;-55
2023/08/15 02:53:51;;;;;;;6.97;4.10;;;;;;;;;;4990136;28;20125;-55
2023/08/15 02:56:16;;;;;;;4.90;3.42;;;;;;;;;;5008112;28;20284;-55
2023/08/15 02:58:42;;;;;;;5.73;4.10;;;;;;;;;;5007442;28;20446;-55
2023/08/15 03:01:07;;;;;;;6.40;3.70;;;;;;;;;;5007092;28;20287;-54
2023/08/15 03:03:32;;;;;;;6.43;4.30;;;;;;;;;;5007080;28;20046;-55
2023/08/15 03:06:03;;;;;;;6.22;3.97;;;;;;;;;;5007447;28;20037;-55
2023/08/15 03:08:29;;;;;;;5.93;3.83;;;;;;;;;;5007046;28;20038;-55
2023/08/15 03:10:54;;;;;;;6.53;3.80;;;;;;;;;;4989069;28;20064;-55
2023/08/15 03:13:19;;;;;;;5.60;3.50;;;;;;;;;;5006628;28;20089;-57
2023/08/15 03:15:51;;;;;;;5.93;4.10;;;;;;;;;;5012032;28;20037;-55
2023/08/15 03:18:17;;;;;;;6.60;3.80;;;;;;;;;;4973217;28;20753;-55
2023/08/15 03:20:42;;;;;;;7.32;4.82;;;;;;;;;;5006833;28;20046;-54
2023/08/15 03:23:08;;;;;;;7.45;4.60;;;;;;;;;;4989895;28;20093;-55
2023/08/15 03:25:33;;;;;;;6.23;4.30;;;;;;;;;;4992609;28;20096;-55
2023/08/15 03:27:58;;;;;;;7.67;4.10;;;;;;;;;;5006959;28;20273;-56
2023/08/15 03:30:23;;;;;;;7.53;4.40;;;;;;;;;;5006594;28;20046;-55
2023/08/15 03:32:48;;;;;;;8.80;4.50;;;;;;;;;;5006605;28;20714;-55
2023/08/15 03:35:14;;;;;;;7.67;4.40;;;;;;;;;;5007375;28;20269;-55
2023/08/15 03:37:39;;;;;;;7.57;4.57;;;;;;;;;;5005730;28;20054;-57
2023/08/15 03:40:05;;;;;;;6.73;4.33;;;;;;;;;;5005480;28;20416;-56
2023/08/15 03:42:30;;;;;;;6.50;4.43;;;;;;;;;;5006297;28;20499;-56
2023/08/15 03:44:55;;;;;;;4.97;4.10;;;;;;;;;;5007181;28;20729;-56
2023/08/15 03:47:20;;;;;;;6.20;4.40;;;;;;;;;;5019655;28;20374;-56
2023/08/15 03:49:45;;;;;;;6.70;4.50;;;;;;;;;;5006743;28;20277;-55
2023/08/15 03:52:11;;;;;;;7.17;3.90;;;;;;;;;;5006422;28;20507;-55
2023/08/15 03:54:36;;;;;;;6.55;4.40;;;;;;;;;;5005643;28;20295;-55
2023/08/15 03:57:01;;;;;;;8.73;3.90;;;;;;;;;;5016536;28;20466;-55
2023/08/15 03:59:26;;;;;;;7.10;4.67;;;;;;;;;;5006497;28;20659;-55
2023/08/15 04:01:52;;;;;;;8.07;4.37;;;;;;;;;;5002221;28;20355;-55
2023/08/15 04:04:17;;;;;;;6.57;4.38;;;;;;;;;;5007054;28;20288;-55
2023/08/15 04:06:42;;;;;;;7.47;4.20;;;;;;;;;;5006382;28;20041;-55
2023/08/15 04:09:07;;;;;;;8.20;3.97;;;;;;;;;;5006088;28;20037;-55
2023/08/15 04:11:33;;;;;;;6.87;4.20;;;;;;;;;;5005526;28;20088;-56
2023/08/15 04:13:58;;;;;;;6.70;4.20;;;;;;;;;;5005925;28;20844;-56
2023/08/15 04:16:23;;;;;;;7.47;4.18;;;;;;;;;;5005857;28;20281;-56
2023/08/15 04:18:48;;;;;;;5.93;4.00;;;;;;;;;;5011416;28;20038;-56
2023/08/15 04:21:14;;;;;;;6.10;4.50;;;;;;;;;;5005216;28;20363;-54
2023/08/15 04:23:39;;;;;;;7.03;4.40;;;;;;;;;;5004582;28;20299;-55
2023/08/15 04:26:05;;;;;;;5.78;3.90;;;;;;;;;;5004480;28;20281;-55
2023/08/15 04:28:30;;;;;;;6.07;4.13;;;;;;;;;;5025080;28;20087;-56
2023/08/15 04:30:55;;;;;;;5.00;3.57;;;;;;;;;;5028794;28;20080;-55
2023/08/15 04:33:21;;;;;;;5.90;4.20;;;;;;;;;;5024564;28;20270;-55
2023/08/15 04:35:46;;;;;;;7.47;4.60;;;;;;;;;;5025769;28;20291;-56
2023/08/15 04:38:12;;;;;;;6.50;4.33;;;;;;;;;;5025114;28;20487;-55
2023/08/15 04:40:39;;;;;;;8.23;4.40;;;;;;;;;;5025883;28;20812;-55
2023/08/15 04:43:05;;;;;;;7.13;4.25;;;;;;;;;;5024726;28;20761;-55
2023/08/15 04:45:30;;;;;;;6.75;3.95;;;;;;;;;;5030623;28;20120;-56
2023/08/15 04:47:55;;;;;;;8.35;4.20;;;;;;;;;;5040143;28;20420;-55
2023/08/15 04:50:21;;;;;;;8.50;4.25;;;;;;;;;;5025098;28;20095;-55
2023/08/15 04:52:46;;;;;;;8.18;4.50;;;;;;;;;;5026484;28;20043;-56
2023/08/15 04:55:13;;;;;;;6.50;4.10;;;;;;;;;;5028300;28;20395;-55
2023/08/15 04:57:38;;;;;;;7.43;4.00;;;;;;;;;;5028377;28;20126;-55
2023/08/15 05:00:08;;;;;;;5.70;4.10;;;;;;;;;;5032651;28;20024;-57
2023/08/15 05:02:34;;;;;;;7.68;4.30;;;;;;;;;;5031545;28;20022;-58
2023/08/15 05:04:59;;;;;;;7.18;4.22;;;;;;;;;;5024358;28;20480;-54
2023/08/15 05:07:25;;;;;;;6.38;4.50;;;;;;;;;;5003575;28;20055;-56
2023/08/15 05:09:51;;;;;;;7.53;3.90;;;;;;;;;;5005057;28;20504;-55
2023/08/15 05:12:16;;;;;;;6.87;3.83;;;;;;;;;;4997426;28;20507;-55
2023/08/15 05:14:41;;;;;;;6.47;4.30;;;;;;;;;;4989863;28;20308;-56
2023/08/15 05:17:06;;;;;;;8.70;4.30;;;;;;;;;;4989661;28;20414;-56
2023/08/15 05:19:32;;;;;;;5.70;4.10;;;;;;;;;;4988894;28;20132;-56
2023/08/15 05:21:57;;;;;;;8.00;4.13;;;;;;;;;;4989723;28;20280;-56
2023/08/15 05:24:25;;;;;;;7.13;4.45;;;;;;;;;;4991707;28;20101;-57
2023/08/15 05:26:50;;;;;;;6.97;4.35;;;;;;;;;;5010353;28;21003;-56
2023/08/15 05:29:15;;;;;;;8.97;4.83;;;;;;;;;;5009648;28;20042;-57
2023/08/15 05:31:40;;;;;;;7.77;4.40;;;;;;;;;;5009768;28;20686;-56
2023/08/15 05:34:05;;;;;;;10.17;5.17;;;;;;;;;;5008188;28;20287;-56
2023/08/15 05:36:31;;;;;;;6.68;4.32;;;;;;;;;;5008398;28;20292;-56
2023/08/15 05:38:56;;;;;;;9.13;4.80;;;;;;;;;;4971347;28;20435;-56
2023/08/15 05:41:21;;;;;;;6.80;4.65;;;;;;;;;;4991186;28;20132;-57
2023/08/15 05:43:47;;;;;;;7.63;4.60;;;;;;;;;;5008011;28;20033;-56
2023/08/15 05:46:12;;;;;;;7.13;3.97;;;;;;;;;;5009823;28;20045;-58
2023/08/15 05:48:38;;;;;;;11.07;4.53;;;;;;;;;;4992082;28;20292;-57
2023/08/15 05:51:03;;;;;;;7.82;4.20;;;;;;;;;;5006031;28;20296;-60
2023/08/15 05:53:28;;;;;;;6.00;4.50;;;;;;;;;;4987999;28;20169;-56
2023/08/15 05:55:54;;;;;;;7.63;4.27;;;;;;;;;;4989510;28;20173;-56
2023/08/15 05:58:19;;;;;;;6.88;4.35;;;;;;;;;;4988544;28;20062;-57
2023/08/15 06:00:44;;;;;;;6.80;4.30;;;;;;;;;;4990112;28;20058;-56
2023/08/15 06:03:10;;;;;;;7.40;4.77;;;;;;;;;;5004449;28;20658;-58
2023/08/15 06:05:35;;;;;;;9.32;4.40;;;;;;;;;;4998768;28;20272;-58
2023/08/15 06:08:00;;;;;;;7.33;4.30;;;;;;;;;;4999541;28;20037;-57
2023/08/15 06:10:25;;;;;;;7.30;3.93;;;;;;;;;;4996092;28;20738;-57
2023/08/15 06:12:51;;;;;;;6.17;3.83;;;;;;;;;;4989998;28;20293;-57
2023/08/15 06:15:16;;;;;;;6.93;4.27;;;;;;;;;;5003429;28;20276;-57
2023/08/15 06:17:41;;;;;;;8.57;4.30;;;;;;;;;;5003392;28;20276;-57
2023/08/15 06:20:07;;;;;;;8.15;4.47;;;;;;;;;;4993771;28;20128;-57
2023/08/15 06:22:32;;;;;;;7.43;4.38;;;;;;;;;;4980568;28;20169;-56
2023/08/15 06:24:57;;;;;;;6.37;4.23;;;;;;;;;;4995935;28;20038;-57
2023/08/15 06:27:23;;;;;;;7.07;4.40;;;;;;;;;;5003454;28;20042;-57
2023/08/15 06:29:48;;;;;;;5.57;3.83;;;;;;;;;;4999291;28;20041;-57
2023/08/15 06:32:26;;;;;;;6.53;3.90;;;;;;;;;;5004438;28;20334;-57
2023/08/15 06:34:51;;;;;;;5.97;3.90;;;;;;;;;;5001400;28;20084;-56
2023/08/15 06:37:17;;;;;;;5.43;4.07;;;;;;;;;;4993596;28;20408;-56
2023/08/15 06:39:42;;;;;;;11.00;4.17;;;;;;;;;;4990306;28;20327;-56
2023/08/15 06:42:07;;;;;;;7.80;4.10;;;;;;;;;;4977878;28;20434;-57
2023/08/15 06:44:32;;;;;;;7.07;3.95;;;;;;;;;;5010053;28;20517;-57
2023/08/15 06:46:58;;;;;;;6.40;4.07;;;;;;;;;;5009188;28;20038;-54
2023/08/15 06:49:23;;;;;;;8.03;4.13;;;;;;;;;;5009268;28;20303;-54
2023/08/15 06:51:48;;;;;;;7.00;4.30;;;;;;;;;;5041200;23;20053;-56
2023/08/15 06:54:13;;;;;;;5.72;4.40;;;;;;;;;;5027757;28;20045;-56
2023/08/15 06:56:39;;;;;;;6.87;4.13;;;;;;;;;;5027268;28;20041;-55
2023/08/15 06:59:04;;;;;;;8.37;4.37;;;;;;;;;;5034518;28;20275;-55
2023/08/15 07:01:29;;;;;;;7.55;3.80;;;;;;;;;;5030828;28;20369;-56
2023/08/15 07:03:55;;;;;;;6.68;3.92;;;;;;;;;;5015825;28;20041;-58
2023/08/15 07:06:21;;;;;;;5.88;4.10;;;;;;;;;;5042467;28;20037;-56
2023/08/15 07:08:46;;;;;;;6.73;4.10;;;;;;;;;;5045547;22;20060;-59
2023/08/15 07:11:11;;;;;;;7.77;4.27;;;;;;;;;;5025780;28;20057;-56
2023/08/15 07:13:36;;;;;;;8.57;4.50;;;;;;;;;;5027867;28;20291;-58
2023/08/15 07:16:01;;;;;;;8.73;4.47;;;;;;;;;;5026864;28;20942;-57
2023/08/15 07:18:27;;;;;;;8.07;4.00;;;;;;;;;;5033474;28;20436;-59
2023/08/15 07:20:53;;;;;;;8.35;4.05;;;;;;;;;;5030093;28;21194;-59
2023/08/15 07:23:18;;;;;;;7.47;4.40;;;;;;;;;;5025725;28;20098;-60
2023/08/15 07:25:43;;;;;;;7.20;4.40;;;;;;;;;;5029682;28;20064;-60
2023/08/15 07:28:09;;;;;;;7.32;4.43;;;;;;;;;;5030697;28;20037;-60
2023/08/15 07:30:34;;;;;;;7.50;4.47;;;;;;;;;;5028197;28;20077;-59
2023/08/15 07:32:59;;;;;;;7.33;4.63;;;;;;;;;;5029989;28;20057;-59
2023/08/15 07:35:24;;;;;;;10.10;4.37;;;;;;;;;;5003536;28;20303;-60
2023/08/15 07:37:50;;;;;;;6.93;4.40;;;;;;;;;;5029067;28;20061;-60
2023/08/15 07:40:18;;;;;;;7.80;4.18;;;;;;;;;;5028631;28;20045;-61
2023/08/15 07:42:43;;;;;;;7.95;3.88;;;;;;;;;;5029826;28;20029;-60
2023/08/15 07:45:09;;;;;;;7.80;4.43;;;;;;;;;;5030196;28;20043;-60
2023/08/15 07:47:36;;;;;;;5.95;4.43;;;;;;;;;;5029735;28;20033;-59
2023/08/15 07:50:17;;;;;;;8.18;4.75;;;;;;;;;;5030249;28;20682;-60
2023/08/15 07:52:42;;;;;;;8.63;4.20;;;;;;;;;;5029821;28;20046;-60
2023/08/15 07:55:07;;;;;;;8.07;4.90;;;;;;;;;;5029775;28;20041;-60
2023/08/15 07:57:33;;;;;;;9.18;5.85;;;;;;;;;;5028945;28;20419;-60
2023/08/15 07:59:58;;;;;;;8.30;5.40;;;;;;;;;;5030170;28;20042;-58
2023/08/15 08:02:24;;;;;;;9.00;4.83;;;;;;;;;;5031481;28;20423;-58
2023/08/15 08:04:49;;;;;;;7.82;4.55;;;;;;;;;;5029116;28;20144;-58
2023/08/15 08:07:15;;;;;;;7.83;4.63;;;;;;;;;;5030345;28;20039;-59
2023/08/15 08:09:40;;;;;;;9.32;4.50;;;;;;;;;;5032315;28;20127;-59
2023/08/15 08:12:06;;;;;;;8.33;4.73;;;;;;;;;;5029981;28;20052;-59
2023/08/15 08:14:31;;;;;;;9.33;4.73;;;;;;;;;;5025704;28;20323;-59
2023/08/15 08:16:56;;;;;;;7.18;4.35;;;;;;;;;;5028333;28;20295;-59
2023/08/15 08:19:21;;;;;;;8.30;5.47;;;;;;;;;;5029298;28;20029;-59
2023/08/15 08:21:46;;;;;;;9.47;4.70;;;;;;;;;;5029547;28;20143;-59
2023/08/15 08:24:12;;;;;;;9.80;4.93;;;;;;;;;;5029600;28;20306;-59
2023/08/15 08:26:37;;;;;;;7.03;4.47;;;;;;;;;;5033821;28;20049;-59
2023/08/15 08:29:03;;;;;;;8.55;4.28;;;;;;;;;;5037940;28;20044;-57
2023/08/15 08:31:28;;;;;;;6.05;4.45;;;;;;;;;;5034484;28;20065;-58
2023/08/15 08:33:53;;;;;;;6.67;4.53;;;;;;;;;;5039676;28;20487;-58
2023/08/15 08:36:18;;;;;;;12.43;4.90;;;;;;;;;;5036341;28;20903;-59
2023/08/15 08:38:44;;;;;;;7.40;4.07;;;;;;;;;;5032117;28;20287;-60
2023/08/15 08:41:09;;;;;;;7.00;4.27;;;;;;;;;;5029422;28;20040;-58
2023/08/15 08:43:34;;;;;;;6.60;4.18;;;;;;;;;;5036444;28;20560;-60
2023/08/15 08:46:00;;;;;;;6.97;4.35;;;;;;;;;;5021112;28;20474;-58
2023/08/15 08:48:25;;;;;;;6.22;4.15;;;;;;;;;;5022819;28;20098;-57
2023/08/15 08:50:50;;;;;;;5.83;4.37;;;;;;;;;;5019246;28;20057;-59
2023/08/15 08:53:15;;;;;;;6.87;4.37;;;;;;;;;;5031053;28;20068;-59
2023/08/15 08:55:41;;;;;;;5.47;4.10;;;;;;;;;;5016267;28;20809;-60
2023/08/15 08:58:06;;;;;;;5.07;4.30;;;;;;;;;;5033508;28;20296;-59
2023/08/15 09:00:32;;;;;;;5.57;3.50;;;;;;;;;;5015879;28;20033;-59
2023/08/15 09:02:57;;;;;;;7.18;4.00;;;;;;;;;;5028658;28;20499;-59
2023/08/15 09:05:22;;;;;;;6.18;4.00;;;;;;;;;;5028873;28;20066;-59
2023/08/15 09:07:48;;;;;;;4.90;3.90;;;;;;;;;;5028241;28;20030;-59
2023/08/15 09:10:14;;;;;;;5.68;4.22;;;;;;;;;;5012473;28;20396;-60
2023/08/15 09:12:39;;;;;;;5.97;4.20;;;;;;;;;;5027673;28;20104;-59
2023/08/15 09:15:08;;;;;;;5.97;3.78;;;;;;;;;;5027221;28;20116;-60
2023/08/15 09:17:33;;;;;;;7.93;3.90;;;;;;;;;;5027640;28;20049;-60
2023/08/15 09:20:09;;;;;;;6.07;4.03;;;;;;;;;;5027218;28;20043;-58
2023/08/15 09:22:35;;;;;;;6.68;4.22;;;;;;;;;;5026784;28;20315;-61
2023/08/15 09:25:01;;;;;;;6.95;4.22;;;;;;;;;;4999182;28;20040;-59
2023/08/15 09:27:26;;;;;;;7.10;4.68;;;;;;;;;;5025806;28;20039;-59
2023/08/15 09:29:51;;;;;;;7.93;4.40;;;;;;;;;;5043844;28;20033;-59
2023/08/15 09:32:17;;;;;;;6.60;4.60;;;;;;;;;;5025571;28;20305;-59
2023/08/15 09:34:42;;;;;;;7.20;4.47;;;;;;;;;;5041964;28;20102;-60
2023/08/15 09:37:07;;;;;;;7.70;4.07;;;;;;;;;;5043486;28;20032;-59
2023/08/15 09:39:32;;;;;;;5.90;4.32;;;;;;;;;;5043956;28;20033;-59
2023/08/15 09:41:58;;;;;;;6.13;4.17;;;;;;;;;;5043739;28;20423;-59
2023/08/15 09:44:30;;;;;;;7.03;4.63;;;;;;;;;;5043705;28;20279;-59
2023/08/15 09:46:55;;;;;;;9.32;4.90;;;;;;;;;;5043302;28;21274;-59
2023/08/15 09:49:20;;;;;;;9.53;4.70;;;;;;;;;;5042253;28;20025;-59
2023/08/15 09:51:46;;;;;;;8.67;4.90;;;;;;;;;;5050202;28;20049;-58
2023/08/15 09:54:11;;;;;;;9.63;4.90;;;;;;;;;;5032278;28;20474;-58
2023/08/15 09:56:37;;;;;;;8.15;5.20;;;;;;;;;;5008806;28;20037;-59
2023/08/15 09:59:03;;;;;;;9.20;4.88;;;;;;;;;;5027905;28;20056;-59
2023/08/15 10:01:28;;;;;;;7.95;5.25;;;;;;;;;;5027097;28;20271;-59
2023/08/15 10:03:53;;;;;;;9.87;4.93;;;;;;;;;;5012100;28;20073;-59
2023/08/15 10:06:19;;;;;;;7.73;5.20;;;;;;;;;;5011358;28;20298;-58
2023/08/15 10:08:44;;;;;;;11.45;5.35;;;;;;;;;;5026796;28;20037;-60
2023/08/15 10:11:09;;;;;;;10.33;5.30;;;;;;;;;;5026298;28;20057;-58
2023/08/15 10:13:35;;;;;;;9.30;5.70;;;;;;;;;;5026933;28;20427;-58
2023/08/15 10:16:01;;;;;;;10.43;5.65;;;;;;;;;;5026377;28;20463;-59
2023/08/15 10:18:26;;;;;;;10.50;5.38;;;;;;;;;;5028897;28;20033;-60
2023/08/15 10:20:52;;;;;;;10.40;5.70;;;;;;;;;;5041162;28;20029;-60
2023/08/15 10:23:43;;;;;;;10.43;5.80;;;;;;;;;;5042001;28;20066;-61
2023/08/15 10:26:08;;;;;;;8.63;5.70;;;;;;;;;;5038710;28;20463;-59
2023/08/15 10:28:34;;;;;;;9.47;5.40;;;;;;;;;;5018267;28;20038;-60
2023/08/15 10:30:59;;;;;;;11.20;5.40;;;;;;;;;;5042021;28;20915;-59
2023/08/15 10:33:25;;;;;;;9.67;4.87;;;;;;;;;;5024560;28;20305;-60
2023/08/15 10:35:56;;;;;;;7.05;4.47;;;;;;;;;;5041070;28;20384;-58
2023/08/15 10:38:21;;;;;;;7.10;4.65;;;;;;;;;;5029858;28;20041;-60
2023/08/15 10:40:47;;;;;;;7.13;5.00;;;;;;;;;;5031946;28;20506;-59
2023/08/15 10:43:12;;;;;;;7.05;4.68;;;;;;;;;;5032395;28;20057;-58
2023/08/15 10:45:52;;;;;;;8.15;4.78;;;;;;;;;;5034575;28;20107;-59
2023/08/15 10:48:36;;;;;;;7.35;4.90;;;;;;;;;;5032886;28;20061;-58
2023/08/15 10:51:01;;;;;;;7.07;5.18;;;;;;;;;;5032441;28;20495;-58
2023/08/15 10:53:27;;;;;;;6.73;4.67;;;;;;;;;;5014463;28;20116;-58
2023/08/15 10:55:52;;;;;;;9.10;5.20;;;;;;;;;;5031289;28;20825;-61
2023/08/15 10:58:17;;;;;;;7.20;4.70;;;;;;;;;;5022167;28;20368;-57
2023/08/15 11:00:42;;;;;;;8.25;4.70;;;;;;;;;;5033410;28;20303;-59
2023/08/15 11:03:08;;;;;;;7.60;4.77;;;;;;;;;;4999015;28;20041;-60
2023/08/15 11:05:33;;;;;;;7.30;4.38;;;;;;;;;;5018984;28;20820;-58
2023/08/15 11:08:17;;;;;;;8.32;4.68;;;;;;;;;;5031830;28;20133;-59
2023/08/15 11:10:48;;;;;;;7.82;5.20;;;;;;;;;;5030722;28;20057;-58
2023/08/15 11:13:13;;;;;;;6.38;4.28;;;;;;;;;;5032742;28;20033;-59
2023/08/15 11:15:38;;;;;;;9.70;5.00;;;;;;;;;;5034083;28;20110;-58
2023/08/15 11:18:04;;;;;;;8.18;5.28;;;;;;;;;;5034007;28;20036;-58
2023/08/15 11:20:29;;;;;;;7.18;4.60;;;;;;;;;;5035402;28;20059;-58
2023/08/15 11:22:56;;;;;;;8.50;4.20;;;;;;;;;;5032714;28;20034;-59
2023/08/15 11:25:21;;;;;;;5.72;4.22;;;;;;;;;;5036278;28;20071;-61
2023/08/15 11:27:50;;;;;;;6.83;4.33;;;;;;;;;;5034658;28;20114;-60
2023/08/15 11:30:15;;;;;;;8.93;4.93;;;;;;;;;;5034201;28;20863;-59
2023/08/15 11:32:40;;;;;;;9.77;4.90;;;;;;;;;;5016981;28;20041;-59
2023/08/15 11:35:15;;;;;;;6.88;4.97;;;;;;;;;;5034872;28;20843;-58
2023/08/15 11:37:40;;;;;;;5.82;4.35;;;;;;;;;;5017698;28;20142;-57
2023/08/15 11:40:06;;;;;;;7.18;4.30;;;;;;;;;;5031002;28;20068;-58
2023/08/15 11:42:32;;;;;;;5.80;4.45;;;;;;;;;;5030458;28;20042;-59
2023/08/15 11:45:16;;;;;;;6.30;4.38;;;;;;;;;;5031855;28;20037;-60
2023/08/15 11:47:56;;;;;;;6.15;4.80;;;;;;;;;;5033245;28;20032;-57
2023/08/15 11:50:25;;;;;;;6.78;4.50;;;;;;;;;;5035019;28;20053;-57
2023/08/15 11:52:51;;;;;;;6.18;4.50;;;;;;;;;;5033799;28;20038;-59
2023/08/15 11:55:18;;;;;;;5.67;4.20;;;;;;;;;;5036051;28;20426;-58
2023/08/15 11:57:43;;;;;;;6.47;4.80;;;;;;;;;;5030145;28;20294;-59
2023/08/15 12:00:09;;;;;;;8.33;5.20;;;;;;;;;;5033183;28;20033;-59
2023/08/15 12:02:35;;;;;;;7.55;4.60;;;;;;;;;;5032424;28;20326;-59
2023/08/15 12:05:12;;;;;;;8.90;4.72;;;;;;;;;;5031465;28;20505;-59
2023/08/15 12:10:40;;;;;;;7.88;5.07;;;;;;;;;;5030053;28;20056;-58
2023/08/15 12:13:06;;;;;;;7.80;5.00;;;;;;;;;;5012885;28;20041;-59
2023/08/15 12:15:31;;;;;;;7.25;4.88;;;;;;;;;;5029101;28;20549;-59
2023/08/15 12:17:56;;;;;;;4.70;3.80;;;;;;;;;;5030762;28;20076;-59
2023/08/15 12:20:22;;;;;;;8.40;5.07;;;;;;;;;;5029103;28;20840;-59
2023/08/15 12:22:47;;;;;;;6.53;5.10;;;;;;;;;;5030012;28;20037;-59
2023/08/15 12:25:12;;;;;;;6.20;4.65;;;;;;;;;;5013905;28;20040;-59
2023/08/15 12:27:37;;;;;;;6.17;4.47;;;;;;;;;;5036472;28;20037;-59
2023/08/15 12:30:03;;;;;;;9.43;4.80;;;;;;;;;;5043899;28;20326;-59
2023/08/15 12:32:28;;;;;;;6.28;4.63;;;;;;;;;;5026444;28;20299;-59
2023/08/15 12:34:54;;;;;;;5.85;4.90;;;;;;;;;;5046672;28;20047;-58
2023/08/15 12:37:19;;;;;;;7.60;5.03;;;;;;;;;;5044451;28;20558;-59
2023/08/15 12:39:44;;;;;;;5.93;4.70;;;;;;;;;;5044918;28;20091;-59
2023/08/15 12:42:11;;;;;;;7.80;4.50;;;;;;;;;;5044914;28;20574;-58
2023/08/15 12:44:36;;;;;;;6.65;4.78;;;;;;;;;;5043980;28;20322;-58
2023/08/15 12:47:01;;;;;;;7.63;5.20;;;;;;;;;;5043861;28;20095;-59
2023/08/15 12:49:27;;;;;;;7.23;4.87;;;;;;;;;;5043361;28;20044;-58
2023/08/15 12:51:52;;;;;;;6.95;4.93;;;;;;;;;;5042153;28;20295;-61
2023/08/15 12:54:18;;;;;;;6.60;4.73;;;;;;;;;;5036042;28;20037;-59
2023/08/15 12:56:43;;;;;;;9.45;5.13;;;;;;;;;;5041817;28;20028;-59
2023/08/15 12:59:08;;;;;;;6.70;4.85;;;;;;;;;;5044082;28;20423;-63
2023/08/15 13:01:33;;;;;;;7.53;5.50;;;;;;;;;;5026458;28;20080;-59
2023/08/15 13:03:59;;;;;;;7.83;5.33;;;;;;;;;;5043645;28;20271;-59
2023/08/15 13:06:24;;;;;;;6.97;5.30;;;;;;;;;;5031090;28;20297;-60
2023/08/15 13:08:49;;;;;;;9.70;5.60;;;;;;;;;;5054068;28;20326;-61
2023/08/15 13:11:15;;;;;;;9.32;5.38;;;;;;;;;;5050154;28;20052;-61
2023/08/15 13:13:40;;;;;;;7.60;5.53;;;;;;;;;;5043769;28;20056;-61
2023/08/15 13:16:06;;;;;;;11.32;5.55;;;;;;;;;;5043264;28;20037;-60
2023/08/15 13:18:31;;;;;;;6.15;4.95;;;;;;;;;;5042323;28;20196;-61
2023/08/15 13:20:56;;;;;;;6.95;5.20;;;;;;;;;;5043316;28;20036;-61
2023/08/15 13:23:22;;;;;;;6.67;5.20;;;;;;;;;;5044294;28;20048;-60
2023/08/15 13:25:47;;;;;;;10.87;5.50;;;;;;;;;;5025960;28;20033;-60
2023/08/15 13:28:12;;;;;;;10.68;4.82;;;;;;;;;;5057656;28;20287;-59
2023/08/15 13:30:38;;;;;;;9.45;5.50;;;;;;;;;;5053651;28;20052;-58
2023/08/15 13:33:03;;;;;;;7.82;5.45;;;;;;;;;;5040117;28;20035;-58
2023/08/15 13:35:28;;;;;;;7.38;5.18;;;;;;;;;;5043175;28;20044;-57
2023/08/15 13:37:53;;;;;;;8.27;5.33;;;;;;;;;;5056666;28;20075;-59
2023/08/15 13:40:19;;;;;;;7.10;5.67;;;;;;;;;;5053616;28;20033;-60
2023/08/15 13:42:44;;;;;;;7.10;4.60;;;;;;;;;;5043861;28;20037;-59
2023/08/15 13:45:09;;;;;;;6.57;5.10;;;;;;;;;;5042490;28;20131;-59
2023/08/15 13:47:35;;;;;;;6.63;5.57;;;;;;;;;;5041225;28;20112;-58
2023/08/15 13:50:00;;;;;;;7.75;5.55;;;;;;;;;;5039540;28;20576;-58
2023/08/15 13:52:26;;;;;;;7.60;5.30;;;;;;;;;;5024900;28;20048;-59
2023/08/15 13:54:51;;;;;;;7.50;5.63;;;;;;;;;;5041695;28;20455;-59
2023/08/15 13:57:16;;;;;;;7.07;5.40;;;;;;;;;;5041427;28;20090;-58
2023/08/15 13:59:42;;;;;;;8.25;5.57;;;;;;;;;;5041700;28;20116;-58
2023/08/15 14:02:07;;;;;;;8.80;6.00;;;;;;;;;;5042690;28;20044;-58
2023/08/15 14:04:32;;;;;;;6.47;5.28;;;;;;;;;;5024343;28;20654;-58
2023/08/15 14:06:58;;;;;;;8.57;5.27;;;;;;;;;;5042750;28;20048;-59
2023/08/15 14:09:24;;;;;;;7.55;5.28;;;;;;;;;;5041679;28;20272;-58
2023/08/15 14:11:49;;;;;;;7.18;5.70;;;;;;;;;;5041370;28;20473;-58
2023/08/15 14:14:15;;;;;;;7.67;5.50;;;;;;;;;;5041907;28;20052;-57
2023/08/15 14:16:40;;;;;;;8.80;5.68;;;;;;;;;;5042218;28;20045;-57
2023/08/15 14:19:06;;;;;;;7.50;5.23;;;;;;;;;;5041531;28;20036;-59
2023/08/15 14:21:31;;;;;;;8.07;5.65;;;;;;;;;;5043650;28;20029;-58
2023/08/15 14:23:56;;;;;;;6.80;5.55;;;;;;;;;;5063226;28;20101;-58
2023/08/15 14:26:21;;;;;;;7.22;5.40;;;;;;;;;;5046284;28;20415;-59
2023/08/15 14:28:47;;;;;;;9.70;5.77;;;;;;;;;;5045237;28;20226;-59
2023/08/15 14:31:12;;;;;;;7.93;5.57;;;;;;;;;;5050630;28;20178;-60
2023/08/15 14:33:37;;;;;;;8.27;5.27;;;;;;;;;;5046058;28;20280;-59
2023/08/15 14:36:03;;;;;;;9.10;5.70;;;;;;;;;;5046723;28;20681;-60
2023/08/15 14:38:29;;;;;;;8.02;5.47;;;;;;;;;;5055282;28;20279;-58